This is the latest recevied weather packets stored in our database for station/object SP2FH-13. If no packets are shown the sender has not sent any weather packets the latest 10 day(s).
| Time | Temp. | Humidity | Pressure | Rain* | Wind** | Luminosity | Snow |
|---|---|---|---|---|---|---|---|
| 1777954692 | 13.33° C | 85% | 1000.3 hPa | - | - | 47 W/m² | - |
| 1777954391 | 13.33° C | 86% | 1000.3 hPa | - | - | 44 W/m² | - |
| 1777954090 | 13.33° C | 85% | 1000.4 hPa | - | - | 41 W/m² | - |
| 1777942346 | 14.44° C | 77% | 1000.5 hPa | - | - | - | - |
| 1777942045 | 14.44° C | 78% | 1000.5 hPa | - | - | - | - |
| 1777941443 | 14.44° C | 77% | 1000.6 hPa | - | - | - | - |
| 1777940540 | 14.44° C | 77% | 1000.6 hPa | - | - | - | - |
| 1777940239 | 14.44° C | 77% | 1000.6 hPa | - | - | - | - |
| 1777939637 | 15° C | 75% | 1000.6 hPa | - | - | - | - |
| 1777934519 | 16.11° C | 68% | 1000.7 hPa | - | - | - | - |
| 1777934219 | 16.67° C | 67% | 1000.8 hPa | - | - | - | - |
| 1777933014 | 17.22° C | 64% | 1000.7 hPa | - | - | - | - |
| 1777932412 | 16.67° C | 63% | 1000.7 hPa | - | - | - | - |
| 1777932111 | 16.67° C | 63% | 1000.8 hPa | - | - | - | - |
| 1777931810 | 16.67° C | 64% | 1000.8 hPa | - | - | - | - |
| 1777931208 | 16.67° C | 63% | 1000.7 hPa | - | - | - | - |
| 1777930907 | 16.67° C | 64% | 1000.8 hPa | - | - | - | - |
| 1777930004 | 16.11° C | 66% | 1000.8 hPa | - | - | - | - |
| 1777929401 | 16.11° C | 67% | 1000.8 hPa | - | - | - | - |
| 1777929100 | 16.11° C | 67% | 1000.7 hPa | - | - | - | - |
| 1777928799 | 16.11° C | 68% | 1000.7 hPa | - | - | - | - |
| 1777926993 | 16.67° C | 59% | 1000.7 hPa | - | - | - | - |
| 1777926692 | 17.22° C | 60% | 1000.7 hPa | - | - | - | - |
| 1777925788 | 16.67° C | 62% | 1000.6 hPa | - | - | - | - |
| 1777925186 | 16.67° C | 60% | 1000.6 hPa | - | - | - | - |
* Rain since midnight (hover to see other rain measurements)
** Current wind speed in m/s (hover to see current wind gust speed)